Youngstown, Canada
Current Conditions -  °F | °C
As of 3:00 PM on Thursday 18 Dec 2014 (Local Time) from CYKY Reporting Station
Overcast Overcast  
Wind Chill:   Ceiling: 300
Heat Index: 14°   Visibility: 7mi
Dew Point: 10°   Wind: 7mph
Humidity: 86%   Direction: 320°NW
Pressure: 29.85"   Gusts: NA
Location:  51.53°N, 111.2°W
Report Text: CYKY 182200Z 32006KT 7SM BKN003 OVC260 M10/M12 A2985 RMK SC5CI3 BR SLP154
Loading
Personal Weather Stations






























Interactive Weather Map New forecast layout! Learn more

10-Day Weather Forecast

Advertisements
Track Severe Weather on mobile